createdAt,value
2019-01-09T19:21:28.410Z,11.20
2019-01-09T19:23:58.741Z,12.10
2019-01-09T19:26:28.420Z,12.00
2019-01-09T19:28:58.413Z,11.80
2019-01-09T19:31:28.112Z,11.60
2019-01-09T19:33:57.722Z,11.20
2019-01-09T19:36:27.689Z,11.20
2019-01-09T19:38:57.091Z,11.00
2019-01-09T19:41:26.837Z,10.90
2019-01-09T19:43:56.338Z,11.10
2019-01-09T19:46:25.888Z,10.70
2019-01-09T19:48:55.407Z,11.00
2019-01-09T19:51:24.912Z,10.70
2019-01-09T19:53:54.745Z,10.70
2019-01-09T19:56:24.482Z,10.70
2019-01-09T19:58:54.378Z,10.70
2019-01-09T20:01:24.345Z,10.80
2019-01-09T20:03:54.150Z,10.80
2019-01-09T20:06:23.893Z,10.70
2019-01-09T20:08:53.537Z,10.80
2019-01-09T20:11:26.601Z,10.60
2019-01-09T20:13:55.054Z,10.50
2019-01-09T20:16:25.912Z,10.60
2019-01-09T20:18:55.570Z,10.60
2019-01-09T20:21:25.218Z,10.50
2019-01-09T20:23:54.875Z,10.60
2019-01-09T20:26:24.492Z,10.70
2019-01-09T20:28:54.311Z,10.50
2019-01-09T20:31:23.919Z,10.80
2019-01-09T20:33:53.997Z,10.80
2019-01-09T20:36:23.896Z,10.70
2019-01-09T20:38:53.814Z,10.80
2019-01-09T20:41:23.804Z,10.80
2019-01-09T20:43:54.671Z,10.30
2019-01-09T20:46:24.501Z,10.00
2019-01-09T20:48:54.168Z,9.70
2019-01-09T20:51:23.789Z,10.40
2019-01-09T20:53:53.639Z,10.00
2019-01-09T20:56:23.437Z,10.00
2019-01-09T20:58:53.053Z,9.90
2019-01-09T21:01:22.880Z,9.90
2019-01-09T21:03:52.796Z,9.90
2019-01-09T21:06:22.442Z,9.80
2019-01-09T21:08:59.459Z,9.80
2019-01-09T21:11:23.668Z,9.80
2019-01-09T21:13:53.474Z,10.40
2019-01-09T21:16:23.410Z,9.80
2019-01-09T21:18:53.208Z,9.70
2019-01-09T21:21:22.957Z,9.70
2019-01-09T21:23:53.590Z,9.60
2019-01-09T21:26:23.424Z,9.60
2019-01-09T21:28:54.387Z,9.50
2019-01-09T21:31:24.224Z,9.50
2019-01-09T21:33:54.043Z,9.50
2019-01-09T21:36:23.987Z,9.50
2019-01-09T21:38:53.836Z,9.50
2019-01-09T21:41:23.536Z,9.50
2019-01-09T21:43:53.453Z,9.40
2019-01-09T21:46:23.423Z,9.50
2019-01-09T21:48:53.205Z,9.40
2019-01-09T21:51:22.680Z,9.40
2019-01-09T21:53:52.364Z,9.40
2019-01-09T21:56:22.318Z,9.40
2019-01-09T21:58:51.928Z,10.00
2019-01-09T22:01:21.641Z,9.40
2019-01-09T22:03:51.568Z,9.50
2019-01-09T22:06:21.430Z,9.40
2019-01-09T22:08:51.123Z,9.40
2019-01-09T22:11:20.986Z,9.40
2019-01-09T22:13:50.711Z,9.40
2019-01-09T22:16:20.639Z,9.40
2019-01-09T22:18:50.259Z,9.40
2019-01-09T22:21:19.993Z,9.40
2019-01-09T22:23:49.700Z,9.40
2019-01-09T22:26:19.541Z,9.40
2019-01-09T22:28:49.480Z,9.50
2019-01-09T22:31:19.412Z,9.40
2019-01-09T22:33:49.325Z,9.40
2019-01-09T22:36:18.996Z,9.50
2019-01-09T22:38:48.781Z,9.50
2019-01-09T22:41:18.709Z,9.50
2019-01-09T22:43:48.455Z,10.00
2019-01-09T22:46:18.165Z,9.20
2019-01-09T22:48:48.113Z,9.50
2019-01-09T22:51:19.241Z,9.40
2019-01-09T22:53:48.885Z,9.50
2019-01-09T22:56:19.620Z,9.40
2019-01-09T22:58:49.383Z,9.40
2019-01-09T23:01:21.544Z,9.40
2019-01-09T23:03:52.200Z,9.40
2019-01-09T23:06:22.226Z,9.40
2019-01-09T23:08:51.948Z,9.40
2019-01-09T23:11:21.782Z,9.40
2019-01-09T23:13:51.620Z,9.40
2019-01-09T23:16:21.332Z,9.50
2019-01-09T23:18:51.433Z,9.40
2019-01-09T23:21:20.989Z,9.40
2019-01-09T23:23:50.844Z,9.40
2019-01-09T23:26:20.769Z,9.40
2019-01-09T23:28:51.499Z,9.40
2019-01-09T23:31:21.238Z,9.40
2019-01-09T23:33:51.190Z,9.40
2019-01-09T23:36:20.892Z,9.40
2019-01-09T23:38:50.840Z,9.40
2019-01-09T23:41:20.549Z,9.90
2019-01-09T23:43:50.392Z,9.30
2019-01-09T23:46:21.481Z,9.30
2019-01-09T23:48:51.280Z,9.30
2019-01-09T23:51:21.206Z,9.20
2019-01-09T23:53:50.942Z,9.30
2019-01-09T23:56:20.653Z,9.30
2019-01-09T23:58:50.380Z,9.30
